Austin, Indiana
Current Conditions -  °F | °C
As of 7:53 AM on Friday 28 Nov 2014 (Local Time) from KLOU Reporting Station
Broken Clouds Broken Clouds  
Wind Chill: 22°   Ceiling: 9000
Heat Index: 27°   Visibility: 10mi
Dew Point: 18°   Wind: 5mph
Humidity: 69%   Direction: 170°S
Pressure: 30.43"   Gusts: NA
Location:  38.76°N, 85.81°W
Report Text: KLOU 281253Z 17004KT 10SM BKN090 M03/M08 A3043 RMK AO2 SLP309 T10281078
Loading
Personal Weather Stations






























Interactive Weather Map New forecast layout! Learn more

10-Day Weather Forecast

Advertisements
Track Severe Weather on mobile